sensor_id;sensor_type;location;lat;lon;timestamp;P1;durP1;ratioP1;P2;durP2;ratioP2
24447;SDS011;13348;50.984;5.822;2022-10-03T00:00:39;10.75;;;4.10;;
24447;SDS011;13348;50.984;5.822;2022-10-03T00:03:29;9.13;;;4.13;;
24447;SDS011;13348;50.984;5.822;2022-10-03T00:06:07;12.43;;;4.32;;
24447;SDS011;13348;50.984;5.822;2022-10-03T00:08:55;19.83;;;4.28;;
24447;SDS011;13348;50.984;5.822;2022-10-03T00:11:34;7.63;;;3.75;;
24447;SDS011;13348;50.984;5.822;2022-10-03T00:14:13;14.20;;;4.75;;
24447;SDS011;13348;50.984;5.822;2022-10-03T00:16:45;11.40;;;3.95;;
24447;SDS011;13348;50.984;5.822;2022-10-03T00:19:22;9.32;;;3.95;;
24447;SDS011;13348;50.984;5.822;2022-10-03T00:21:58;12.63;;;4.30;;
24447;SDS011;13348;50.984;5.822;2022-10-03T00:24:38;8.93;;;4.38;;
24447;SDS011;13348;50.984;5.822;2022-10-03T00:27:15;9.27;;;3.50;;
24447;SDS011;13348;50.984;5.822;2022-10-03T00:29:55;11.27;;;4.45;;
24447;SDS011;13348;50.984;5.822;2022-10-03T00:32:45;13.45;;;4.28;;
24447;SDS011;13348;50.984;5.822;2022-10-03T00:35:35;15.23;;;4.70;;
24447;SDS011;13348;50.984;5.822;2022-10-03T00:38:23;9.45;;;4.32;;
24447;SDS011;13348;50.984;5.822;2022-10-03T00:47:46;12.13;;;4.47;;
24447;SDS011;13348;50.984;5.822;2022-10-03T00:50:41;14.32;;;4.00;;
24447;SDS011;13348;50.984;5.822;2022-10-03T00:53:20;9.13;;;4.82;;
24447;SDS011;13348;50.984;5.822;2022-10-03T00:56:23;10.13;;;5.25;;
24447;SDS011;13348;50.984;5.822;2022-10-03T00:59:07;12.57;;;5.05;;
24447;SDS011;13348;50.984;5.822;2022-10-03T01:01:43;12.48;;;5.43;;
24447;SDS011;13348;50.984;5.822;2022-10-03T01:04:26;9.77;;;4.60;;
24447;SDS011;13348;50.984;5.822;2022-10-03T01:07:08;11.75;;;4.72;;
24447;SDS011;13348;50.984;5.822;2022-10-03T01:09:52;12.35;;;5.30;;
24447;SDS011;13348;50.984;5.822;2022-10-03T01:12:54;13.27;;;5.30;;
24447;SDS011;13348;50.984;5.822;2022-10-03T01:15:31;11.52;;;5.32;;
24447;SDS011;13348;50.984;5.822;2022-10-03T01:18:10;16.25;;;5.38;;
24447;SDS011;13348;50.984;5.822;2022-10-03T01:20:47;13.43;;;5.38;;
24447;SDS011;13348;50.984;5.822;2022-10-03T01:23:36;11.93;;;5.22;;
24447;SDS011;13348;50.984;5.822;2022-10-03T01:26:43;11.45;;;5.18;;
24447;SDS011;13348;50.984;5.822;2022-10-03T01:29:21;13.98;;;5.20;;
24447;SDS011;13348;50.984;5.822;2022-10-03T01:32:11;8.73;;;4.57;;
24447;SDS011;13348;50.984;5.822;2022-10-03T01:34:44;11.38;;;5.05;;
24447;SDS011;13348;50.984;5.822;2022-10-03T01:37:22;14.60;;;5.32;;
24447;SDS011;13348;50.984;5.822;2022-10-03T01:39:56;13.43;;;5.57;;
24447;SDS011;13348;50.984;5.822;2022-10-03T01:42:35;19.77;;;6.07;;
24447;SDS011;13348;50.984;5.822;2022-10-03T01:45:11;15.02;;;5.60;;
24447;SDS011;13348;50.984;5.822;2022-10-03T01:47:51;14.40;;;5.38;;
24447;SDS011;13348;50.984;5.822;2022-10-03T01:50:27;16.02;;;5.50;;
24447;SDS011;13348;50.984;5.822;2022-10-03T01:53:02;19.30;;;5.97;;
24447;SDS011;13348;50.984;5.822;2022-10-03T01:55:43;12.30;;;5.13;;
24447;SDS011;13348;50.984;5.822;2022-10-03T01:58:21;14.60;;;6.30;;
24447;SDS011;13348;50.984;5.822;2022-10-03T02:00:58;12.70;;;5.60;;
24447;SDS011;13348;50.984;5.822;2022-10-03T02:03:34;10.20;;;5.07;;
24447;SDS011;13348;50.984;5.822;2022-10-03T02:06:05;12.02;;;5.72;;
24447;SDS011;13348;50.984;5.822;2022-10-03T02:08:42;14.95;;;5.28;;
24447;SDS011;13348;50.984;5.822;2022-10-03T02:11:21;12.57;;;5.13;;
24447;SDS011;13348;50.984;5.822;2022-10-03T02:13:54;11.20;;;5.28;;
24447;SDS011;13348;50.984;5.822;2022-10-03T02:16:35;16.15;;;6.32;;
24447;SDS011;13348;50.984;5.822;2022-10-03T02:19:10;14.40;;;5.50;;
24447;SDS011;13348;50.984;5.822;2022-10-03T02:21:45;15.75;;;6.07;;
24447;SDS011;13348;50.984;5.822;2022-10-03T02:24:18;10.02;;;5.50;;
24447;SDS011;13348;50.984;5.822;2022-10-03T02:30:08;12.20;;;6.15;;
24447;SDS011;13348;50.984;5.822;2022-10-03T02:36:05;13.90;;;5.57;;
24447;SDS011;13348;50.984;5.822;2022-10-03T02:42:39;12.55;;;5.82;;
24447;SDS011;13348;50.984;5.822;2022-10-03T02:51:56;10.80;;;6.90;;
24447;SDS011;13348;50.984;5.822;2022-10-03T03:00:18;14.25;;;5.82;;
24447;SDS011;13348;50.984;5.822;2022-10-03T03:09:19;13.48;;;6.63;;
24447;SDS011;13348;50.984;5.822;2022-10-03T03:18:14;11.73;;;6.05;;
24447;SDS011;13348;50.984;5.822;2022-10-03T03:20:53;10.15;;;6.00;;
24447;SDS011;13348;50.984;5.822;2022-10-03T03:23:44;13.05;;;6.30;;
24447;SDS011;13348;50.984;5.822;2022-10-03T03:26:32;13.55;;;6.25;;
24447;SDS011;13348;50.984;5.822;2022-10-03T03:29:23;8.98;;;5.93;;
24447;SDS011;13348;50.984;5.822;2022-10-03T03:32:01;18.73;;;6.50;;
24447;SDS011;13348;50.984;5.822;2022-10-03T03:34:37;17.35;;;6.78;;
24447;SDS011;13348;50.984;5.822;2022-10-03T03:37:17;17.02;;;7.05;;
24447;SDS011;13348;50.984;5.822;2022-10-03T03:39:56;13.63;;;6.68;;
24447;SDS011;13348;50.984;5.822;2022-10-03T03:43:01;13.95;;;6.65;;
24447;SDS011;13348;50.984;5.822;2022-10-03T03:45:43;10.77;;;6.97;;
24447;SDS011;13348;50.984;5.822;2022-10-03T03:48:27;20.85;;;6.88;;
24447;SDS011;13348;50.984;5.822;2022-10-03T03:51:09;23.00;;;8.30;;
24447;SDS011;13348;50.984;5.822;2022-10-03T03:59:40;16.38;;;6.97;;
24447;SDS011;13348;50.984;5.822;2022-10-03T04:02:25;16.83;;;7.72;;
24447;SDS011;13348;50.984;5.822;2022-10-03T04:05:08;18.83;;;7.28;;
24447;SDS011;13348;50.984;5.822;2022-10-03T04:07:50;11.85;;;7.80;;
24447;SDS011;13348;50.984;5.822;2022-10-03T04:10:31;13.48;;;7.20;;
24447;SDS011;13348;50.984;5.822;2022-10-03T04:13:17;14.43;;;7.20;;
24447;SDS011;13348;50.984;5.822;2022-10-03T04:16:10;12.85;;;7.50;;
24447;SDS011;13348;50.984;5.822;2022-10-03T04:19:16;13.13;;;6.93;;
24447;SDS011;13348;50.984;5.822;2022-10-03T04:22:08;18.98;;;7.07;;
24447;SDS011;13348;50.984;5.822;2022-10-03T04:27:55;17.05;;;8.57;;
24447;SDS011;13348;50.984;5.822;2022-10-03T04:30:34;12.48;;;7.53;;
24447;SDS011;13348;50.984;5.822;2022-10-03T04:33:16;12.75;;;8.15;;
24447;SDS011;13348;50.984;5.822;2022-10-03T04:35:55;14.30;;;7.40;;
24447;SDS011;13348;50.984;5.822;2022-10-03T04:38:48;13.77;;;7.68;;
24447;SDS011;13348;50.984;5.822;2022-10-03T04:41:26;15.60;;;8.52;;
24447;SDS011;13348;50.984;5.822;2022-10-03T04:44:04;18.10;;;8.40;;
24447;SDS011;13348;50.984;5.822;2022-10-03T04:46:41;16.77;;;7.68;;
24447;SDS011;13348;50.984;5.822;2022-10-03T04:49:17;16.08;;;7.60;;
24447;SDS011;13348;50.984;5.822;2022-10-03T04:51:52;14.85;;;8.80;;
24447;SDS011;13348;50.984;5.822;2022-10-03T04:54:26;11.80;;;8.45;;
24447;SDS011;13348;50.984;5.822;2022-10-03T04:57:04;17.08;;;8.18;;
24447;SDS011;13348;50.984;5.822;2022-10-03T04:59:42;17.30;;;7.45;;
24447;SDS011;13348;50.984;5.822;2022-10-03T05:05:26;11.82;;;9.13;;
24447;SDS011;13348;50.984;5.822;2022-10-03T05:08:11;13.13;;;7.80;;
24447;SDS011;13348;50.984;5.822;2022-10-03T05:10:54;14.63;;;7.63;;
24447;SDS011;13348;50.984;5.822;2022-10-03T05:13:38;12.77;;;8.55;;
24447;SDS011;13348;50.984;5.822;2022-10-03T05:16:16;14.85;;;7.88;;
24447;SDS011;13348;50.984;5.822;2022-10-03T05:18:49;15.85;;;8.32;;
24447;SDS011;13348;50.984;5.822;2022-10-03T05:21:25;13.98;;;9.05;;
24447;SDS011;13348;50.984;5.822;2022-10-03T05:24:00;19.50;;;9.45;;
24447;SDS011;13348;50.984;5.822;2022-10-03T05:26:41;16.95;;;8.98;;
24447;SDS011;13348;50.984;5.822;2022-10-03T05:29:16;12.90;;;7.95;;
24447;SDS011;13348;50.984;5.822;2022-10-03T05:32:02;13.38;;;8.43;;
24447;SDS011;13348;50.984;5.822;2022-10-03T05:34:44;23.17;;;9.45;;
24447;SDS011;13348;50.984;5.822;2022-10-03T05:37:31;23.00;;;9.60;;
24447;SDS011;13348;50.984;5.822;2022-10-03T05:40:13;17.83;;;9.75;;
24447;SDS011;13348;50.984;5.822;2022-10-03T05:45:35;23.60;;;8.73;;
24447;SDS011;13348;50.984;5.822;2022-10-03T05:50:50;20.40;;;8.70;;
24447;SDS011;13348;50.984;5.822;2022-10-03T05:57:17;15.40;;;8.32;;
24447;SDS011;13348;50.984;5.822;2022-10-03T06:00:03;14.90;;;8.40;;
24447;SDS011;13348;50.984;5.822;2022-10-03T06:05:29;20.98;;;9.00;;
24447;SDS011;13348;50.984;5.822;2022-10-03T06:08:23;15.48;;;7.80;;
24447;SDS011;13348;50.984;5.822;2022-10-03T06:11:12;19.20;;;9.02;;
24447;SDS011;13348;50.984;5.822;2022-10-03T06:13:54;15.73;;;8.98;;
24447;SDS011;13348;50.984;5.822;2022-10-03T06:16:38;19.60;;;8.43;;
24447;SDS011;13348;50.984;5.822;2022-10-03T06:19:18;16.60;;;8.48;;
24447;SDS011;13348;50.984;5.822;2022-10-03T06:22:08;14.52;;;8.63;;
24447;SDS011;13348;50.984;5.822;2022-10-03T06:25:03;12.50;;;8.50;;
24447;SDS011;13348;50.984;5.822;2022-10-03T06:34:19;13.55;;;8.13;;
24447;SDS011;13348;50.984;5.822;2022-10-03T06:37:07;17.50;;;8.80;;
24447;SDS011;13348;50.984;5.822;2022-10-03T06:39:57;11.57;;;7.68;;
24447;SDS011;13348;50.984;5.822;2022-10-03T06:42:50;15.73;;;8.05;;
24447;SDS011;13348;50.984;5.822;2022-10-03T06:52:20;13.68;;;7.85;;
24447;SDS011;13348;50.984;5.822;2022-10-03T07:01:33;13.10;;;7.72;;
24447;SDS011;13348;50.984;5.822;2022-10-03T07:10:45;17.52;;;9.98;;
24447;SDS011;13348;50.984;5.822;2022-10-03T07:13:34;21.25;;;9.15;;
24447;SDS011;13348;50.984;5.822;2022-10-03T07:16:31;11.88;;;8.40;;
24447;SDS011;13348;50.984;5.822;2022-10-03T07:19:32;14.75;;;8.38;;
24447;SDS011;13348;50.984;5.822;2022-10-03T07:22:41;13.05;;;8.93;;
24447;SDS011;13348;50.984;5.822;2022-10-03T07:28:48;16.20;;;8.23;;
24447;SDS011;13348;50.984;5.822;2022-10-03T07:31:42;16.95;;;8.63;;
24447;SDS011;13348;50.984;5.822;2022-10-03T07:34:31;15.95;;;8.75;;
24447;SDS011;13348;50.984;5.822;2022-10-03T07:37:27;12.35;;;8.05;;
24447;SDS011;13348;50.984;5.822;2022-10-03T07:40:41;17.05;;;8.10;;
24447;SDS011;13348;50.984;5.822;2022-10-03T07:43:44;13.95;;;8.73;;
24447;SDS011;13348;50.984;5.822;2022-10-03T07:50:09;11.15;;;8.52;;
24447;SDS011;13348;50.984;5.822;2022-10-03T07:53:12;12.20;;;7.60;;
24447;SDS011;13348;50.984;5.822;2022-10-03T07:55:57;13.55;;;8.95;;
24447;SDS011;13348;50.984;5.822;2022-10-03T07:58:38;10.82;;;7.68;;
24447;SDS011;13348;50.984;5.822;2022-10-03T08:01:29;11.82;;;8.68;;
24447;SDS011;13348;50.984;5.822;2022-10-03T08:07:30;14.35;;;9.02;;
24447;SDS011;13348;50.984;5.822;2022-10-03T08:13:17;14.30;;;8.68;;
24447;SDS011;13348;50.984;5.822;2022-10-03T08:16:12;12.75;;;8.77;;
24447;SDS011;13348;50.984;5.822;2022-10-03T08:21:51;14.13;;;9.38;;
24447;SDS011;13348;50.984;5.822;2022-10-03T08:24:32;16.63;;;10.00;;
24447;SDS011;13348;50.984;5.822;2022-10-03T08:27:21;21.10;;;10.13;;
24447;SDS011;13348;50.984;5.822;2022-10-03T08:30:15;22.42;;;10.70;;
24447;SDS011;13348;50.984;5.822;2022-10-03T08:32:52;16.23;;;11.43;;
24447;SDS011;13348;50.984;5.822;2022-10-03T08:44:26;16.95;;;11.75;;
24447;SDS011;13348;50.984;5.822;2022-10-03T08:47:37;16.55;;;12.60;;
24447;SDS011;13348;50.984;5.822;2022-10-03T08:50:26;16.92;;;13.00;;
24447;SDS011;13348;50.984;5.822;2022-10-03T08:56:23;16.58;;;12.07;;
24447;SDS011;13348;50.984;5.822;2022-10-03T08:59:06;19.13;;;12.25;;
24447;SDS011;13348;50.984;5.822;2022-10-03T09:01:54;13.95;;;11.20;;
24447;SDS011;13348;50.984;5.822;2022-10-03T09:07:59;15.88;;;11.70;;
24447;SDS011;13348;50.984;5.822;2022-10-03T09:14:14;16.77;;;11.38;;
24447;SDS011;13348;50.984;5.822;2022-10-03T09:17:18;17.88;;;12.25;;
24447;SDS011;13348;50.984;5.822;2022-10-03T09:20:11;13.20;;;10.18;;
24447;SDS011;13348;50.984;5.822;2022-10-03T09:23:05;13.43;;;9.73;;
24447;SDS011;13348;50.984;5.822;2022-10-03T09:26:02;13.00;;;8.63;;
24447;SDS011;13348;50.984;5.822;2022-10-03T09:28:57;16.65;;;9.35;;
24447;SDS011;13348;50.984;5.822;2022-10-03T09:31:58;15.02;;;8.00;;
24447;SDS011;13348;50.984;5.822;2022-10-03T09:38:29;10.75;;;8.88;;
24447;SDS011;13348;50.984;5.822;2022-10-03T09:41:28;14.73;;;8.95;;
24447;SDS011;13348;50.984;5.822;2022-10-03T09:44:28;9.27;;;7.30;;
24447;SDS011;13348;50.984;5.822;2022-10-03T09:53:39;10.73;;;7.10;;
24447;SDS011;13348;50.984;5.822;2022-10-03T10:00:00;16.52;;;6.85;;
24447;SDS011;13348;50.984;5.822;2022-10-03T10:02:56;14.25;;;8.43;;
24447;SDS011;13348;50.984;5.822;2022-10-03T10:18:53;10.30;;;5.78;;
24447;SDS011;13348;50.984;5.822;2022-10-03T10:21:53;10.32;;;6.15;;
24447;SDS011;13348;50.984;5.822;2022-10-03T10:31:20;10.43;;;6.13;;
24447;SDS011;13348;50.984;5.822;2022-10-03T10:37:24;11.55;;;6.32;;
24447;SDS011;13348;50.984;5.822;2022-10-03T10:55:18;8.90;;;4.70;;
24447;SDS011;13348;50.984;5.822;2022-10-03T11:10:22;5.65;;;2.47;;
24447;SDS011;13348;50.984;5.822;2022-10-03T11:13:18;4.65;;;2.00;;
24447;SDS011;13348;50.984;5.822;2022-10-03T11:28:55;8.10;;;2.25;;
24447;SDS011;13348;50.984;5.822;2022-10-03T11:38:20;2.60;;;1.17;;
24447;SDS011;13348;50.984;5.822;2022-10-03T11:40:55;4.80;;;1.40;;
24447;SDS011;13348;50.984;5.822;2022-10-03T11:46:28;3.78;;;1.45;;
24447;SDS011;13348;50.984;5.822;2022-10-03T11:49:20;2.75;;;1.35;;
24447;SDS011;13348;50.984;5.822;2022-10-03T11:52:04;3.60;;;1.60;;
24447;SDS011;13348;50.984;5.822;2022-10-03T11:57:15;4.00;;;1.70;;
24447;SDS011;13348;50.984;5.822;2022-10-03T11:59:56;1.92;;;1.50;;
24447;SDS011;13348;50.984;5.822;2022-10-03T12:02:34;4.03;;;1.65;;
24447;SDS011;13348;50.984;5.822;2022-10-03T12:05:22;5.32;;;2.15;;
24447;SDS011;13348;50.984;5.822;2022-10-03T12:08:01;5.90;;;1.73;;
24447;SDS011;13348;50.984;5.822;2022-10-03T12:11:01;2.97;;;1.42;;
24447;SDS011;13348;50.984;5.822;2022-10-03T12:13:40;5.03;;;1.50;;
24447;SDS011;13348;50.984;5.822;2022-10-03T12:16:19;4.03;;;1.70;;
24447;SDS011;13348;50.984;5.822;2022-10-03T12:18:54;3.80;;;1.65;;
24447;SDS011;13348;50.984;5.822;2022-10-03T12:21:31;2.33;;;1.40;;
24447;SDS011;13348;50.984;5.822;2022-10-03T12:26:49;5.68;;;1.55;;
24447;SDS011;13348;50.984;5.822;2022-10-03T12:29:21;4.18;;;1.55;;
24447;SDS011;13348;50.984;5.822;2022-10-03T12:31:55;6.95;;;1.50;;
24447;SDS011;13348;50.984;5.822;2022-10-03T12:34:42;4.03;;;1.67;;
24447;SDS011;13348;50.984;5.822;2022-10-03T12:40:07;6.00;;;1.67;;
24447;SDS011;13348;50.984;5.822;2022-10-03T12:42:44;7.38;;;1.50;;
24447;SDS011;13348;50.984;5.822;2022-10-03T12:45:20;3.80;;;1.52;;
24447;SDS011;13348;50.984;5.822;2022-10-03T12:47:59;5.30;;;1.30;;
24447;SDS011;13348;50.984;5.822;2022-10-03T12:50:47;5.22;;;1.67;;
24447;SDS011;13348;50.984;5.822;2022-10-03T12:53:31;3.83;;;1.42;;
24447;SDS011;13348;50.984;5.822;2022-10-03T12:56:04;4.72;;;2.00;;
24447;SDS011;13348;50.984;5.822;2022-10-03T12:58:41;4.22;;;1.45;;
24447;SDS011;13348;50.984;5.822;2022-10-03T13:01:20;7.70;;;2.05;;
24447;SDS011;13348;50.984;5.822;2022-10-03T13:03:54;4.72;;;1.85;;
24447;SDS011;13348;50.984;5.822;2022-10-03T13:06:29;5.75;;;1.83;;
24447;SDS011;13348;50.984;5.822;2022-10-03T13:09:23;3.90;;;1.52;;
24447;SDS011;13348;50.984;5.822;2022-10-03T13:11:59;6.85;;;1.60;;
24447;SDS011;13348;50.984;5.822;2022-10-03T13:14:44;2.25;;;1.23;;
24447;SDS011;13348;50.984;5.822;2022-10-03T13:18:06;2.40;;;1.40;;
24447;SDS011;13348;50.984;5.822;2022-10-03T13:21:02;6.65;;;2.33;;
24447;SDS011;13348;50.984;5.822;2022-10-03T13:23:38;4.10;;;1.70;;
24447;SDS011;13348;50.984;5.822;2022-10-03T13:26:13;2.83;;;1.65;;
24447;SDS011;13348;50.984;5.822;2022-10-03T13:28:53;4.15;;;1.67;;
24447;SDS011;13348;50.984;5.822;2022-10-03T13:31:39;4.15;;;1.55;;
24447;SDS011;13348;50.984;5.822;2022-10-03T13:34:21;3.95;;;1.10;;
24447;SDS011;13348;50.984;5.822;2022-10-03T13:36:53;2.90;;;1.55;;
24447;SDS011;13348;50.984;5.822;2022-10-03T13:39:25;5.18;;;1.52;;
24447;SDS011;13348;50.984;5.822;2022-10-03T13:42:08;4.70;;;1.45;;
24447;SDS011;13348;50.984;5.822;2022-10-03T13:44:44;3.35;;;1.50;;
24447;SDS011;13348;50.984;5.822;2022-10-03T13:50:15;2.08;;;0.93;;
24447;SDS011;13348;50.984;5.822;2022-10-03T13:52:48;2.92;;;1.45;;
24447;SDS011;13348;50.984;5.822;2022-10-03T13:55:25;2.88;;;1.13;;
24447;SDS011;13348;50.984;5.822;2022-10-03T13:58:15;3.58;;;1.50;;
24447;SDS011;13348;50.984;5.822;2022-10-03T14:01:08;5.22;;;1.75;;
24447;SDS011;13348;50.984;5.822;2022-10-03T14:03:49;4.88;;;1.65;;
24447;SDS011;13348;50.984;5.822;2022-10-03T14:06:41;4.55;;;1.50;;
24447;SDS011;13348;50.984;5.822;2022-10-03T14:09:20;3.47;;;1.05;;
24447;SDS011;13348;50.984;5.822;2022-10-03T14:12:05;4.55;;;1.85;;
24447;SDS011;13348;50.984;5.822;2022-10-03T14:15:00;2.67;;;1.80;;
24447;SDS011;13348;50.984;5.822;2022-10-03T14:17:44;5.40;;;1.48;;
24447;SDS011;13348;50.984;5.822;2022-10-03T14:20:21;2.33;;;0.80;;
24447;SDS011;13348;50.984;5.822;2022-10-03T14:22:59;3.25;;;1.30;;
24447;SDS011;13348;50.984;5.822;2022-10-03T14:25:42;6.05;;;1.73;;
24447;SDS011;13348;50.984;5.822;2022-10-03T14:28:18;6.15;;;1.48;;
24447;SDS011;13348;50.984;5.822;2022-10-03T14:30:55;4.13;;;1.20;;
24447;SDS011;13348;50.984;5.822;2022-10-03T14:33:31;2.33;;;1.23;;
24447;SDS011;13348;50.984;5.822;2022-10-03T14:36:13;3.60;;;1.60;;
24447;SDS011;13348;50.984;5.822;2022-10-03T14:44:57;4.85;;;1.50;;
24447;SDS011;13348;50.984;5.822;2022-10-03T14:47:32;4.18;;;1.50;;
24447;SDS011;13348;50.984;5.822;2022-10-03T14:50:02;5.32;;;1.52;;
24447;SDS011;13348;50.984;5.822;2022-10-03T14:52:33;5.70;;;1.48;;
24447;SDS011;13348;50.984;5.822;2022-10-03T14:55:06;3.20;;;1.27;;
24447;SDS011;13348;50.984;5.822;2022-10-03T14:57:41;7.30;;;1.65;;
24447;SDS011;13348;50.984;5.822;2022-10-03T15:00:22;3.53;;;2.20;;
24447;SDS011;13348;50.984;5.822;2022-10-03T15:02:52;3.08;;;1.33;;
24447;SDS011;13348;50.984;5.822;2022-10-03T15:05:20;3.53;;;1.50;;
24447;SDS011;13348;50.984;5.822;2022-10-03T15:07:59;4.72;;;1.40;;
24447;SDS011;13348;50.984;5.822;2022-10-03T15:10:28;4.85;;;1.30;;
24447;SDS011;13348;50.984;5.822;2022-10-03T15:13:05;6.72;;;1.70;;
24447;SDS011;13348;50.984;5.822;2022-10-03T15:15:36;5.95;;;1.50;;
24447;SDS011;13348;50.984;5.822;2022-10-03T15:18:06;5.03;;;1.42;;
24447;SDS011;13348;50.984;5.822;2022-10-03T15:20:41;4.05;;;1.45;;
24447;SDS011;13348;50.984;5.822;2022-10-03T15:23:18;4.78;;;1.95;;
24447;SDS011;13348;50.984;5.822;2022-10-03T15:25:48;5.80;;;1.80;;
24447;SDS011;13348;50.984;5.822;2022-10-03T15:28:19;7.45;;;1.40;;
24447;SDS011;13348;50.984;5.822;2022-10-03T15:30:51;3.80;;;1.73;;
24447;SDS011;13348;50.984;5.822;2022-10-03T15:33:22;3.90;;;1.40;;
24447;SDS011;13348;50.984;5.822;2022-10-03T15:35:55;5.03;;;1.67;;
24447;SDS011;13348;50.984;5.822;2022-10-03T15:38:33;4.30;;;1.50;;
24447;SDS011;13348;50.984;5.822;2022-10-03T15:41:06;9.60;;;1.63;;
24447;SDS011;13348;50.984;5.822;2022-10-03T15:43:36;7.28;;;2.03;;
24447;SDS011;13348;50.984;5.822;2022-10-03T15:46:11;2.85;;;1.67;;
24447;SDS011;13348;50.984;5.822;2022-10-03T15:48:53;6.07;;;1.90;;
24447;SDS011;13348;50.984;5.822;2022-10-03T15:51:26;4.30;;;2.13;;
24447;SDS011;13348;50.984;5.822;2022-10-03T15:53:57;5.35;;;2.13;;
24447;SDS011;13348;50.984;5.822;2022-10-03T15:56:28;4.35;;;1.45;;
24447;SDS011;13348;50.984;5.822;2022-10-03T15:59:04;3.22;;;1.85;;
24447;SDS011;13348;50.984;5.822;2022-10-03T16:01:36;3.78;;;1.55;;
24447;SDS011;13348;50.984;5.822;2022-10-03T16:04:06;4.13;;;1.77;;
24447;SDS011;13348;50.984;5.822;2022-10-03T16:06:41;3.65;;;1.55;;
24447;SDS011;13348;50.984;5.822;2022-10-03T16:09:16;5.55;;;1.67;;
24447;SDS011;13348;50.984;5.822;2022-10-03T16:11:53;5.55;;;1.48;;
24447;SDS011;13348;50.984;5.822;2022-10-03T16:14:32;3.72;;;1.35;;
24447;SDS011;13348;50.984;5.822;2022-10-03T16:17:09;4.25;;;1.63;;
24447;SDS011;13348;50.984;5.822;2022-10-03T16:19:43;11.48;;;2.33;;
24447;SDS011;13348;50.984;5.822;2022-10-03T16:22:19;3.20;;;1.60;;
24447;SDS011;13348;50.984;5.822;2022-10-03T16:25:03;4.15;;;1.60;;
24447;SDS011;13348;50.984;5.822;2022-10-03T16:27:35;3.92;;;1.52;;
24447;SDS011;13348;50.984;5.822;2022-10-03T16:30:18;9.32;;;1.92;;
24447;SDS011;13348;50.984;5.822;2022-10-03T16:32:49;2.47;;;1.70;;
24447;SDS011;13348;50.984;5.822;2022-10-03T16:35:29;6.00;;;1.90;;
24447;SDS011;13348;50.984;5.822;2022-10-03T16:38:02;5.57;;;1.87;;
24447;SDS011;13348;50.984;5.822;2022-10-03T16:40:36;5.25;;;1.98;;
24447;SDS011;13348;50.984;5.822;2022-10-03T16:43:03;6.07;;;1.83;;
24447;SDS011;13348;50.984;5.822;2022-10-03T16:45:38;7.78;;;2.30;;
24447;SDS011;13348;50.984;5.822;2022-10-03T16:48:09;5.10;;;1.73;;
24447;SDS011;13348;50.984;5.822;2022-10-03T16:50:58;6.03;;;2.60;;
24447;SDS011;13348;50.984;5.822;2022-10-03T16:53:28;6.80;;;1.93;;
24447;SDS011;13348;50.984;5.822;2022-10-03T16:55:58;7.30;;;1.95;;
24447;SDS011;13348;50.984;5.822;2022-10-03T16:58:31;7.10;;;2.17;;
24447;SDS011;13348;50.984;5.822;2022-10-03T17:01:05;5.28;;;2.10;;
24447;SDS011;13348;50.984;5.822;2022-10-03T17:03:36;6.25;;;2.08;;
24447;SDS011;13348;50.984;5.822;2022-10-03T17:06:13;6.50;;;2.65;;
24447;SDS011;13348;50.984;5.822;2022-10-03T17:08:48;5.78;;;2.45;;
24447;SDS011;13348;50.984;5.822;2022-10-03T17:11:20;3.90;;;2.10;;
24447;SDS011;13348;50.984;5.822;2022-10-03T17:13:51;4.55;;;1.95;;
24447;SDS011;13348;50.984;5.822;2022-10-03T17:16:23;6.77;;;2.43;;
24447;SDS011;13348;50.984;5.822;2022-10-03T17:19:05;10.02;;;3.03;;
24447;SDS011;13348;50.984;5.822;2022-10-03T17:21:40;7.35;;;2.72;;
24447;SDS011;13348;50.984;5.822;2022-10-03T17:24:19;6.55;;;2.75;;
24447;SDS011;13348;50.984;5.822;2022-10-03T17:26:55;8.68;;;3.28;;
24447;SDS011;13348;50.984;5.822;2022-10-03T17:29:31;9.70;;;2.42;;
24447;SDS011;13348;50.984;5.822;2022-10-03T17:32:01;5.25;;;2.60;;
24447;SDS011;13348;50.984;5.822;2022-10-03T17:34:37;8.00;;;2.78;;
24447;SDS011;13348;50.984;5.822;2022-10-03T17:40:13;6.05;;;3.13;;
24447;SDS011;13348;50.984;5.822;2022-10-03T17:42:48;8.00;;;3.05;;
24447;SDS011;13348;50.984;5.822;2022-10-03T17:48:10;7.28;;;3.35;;
24447;SDS011;13348;50.984;5.822;2022-10-03T17:50:47;10.25;;;3.92;;
24447;SDS011;13348;50.984;5.822;2022-10-03T17:53:20;5.85;;;3.40;;
24447;SDS011;13348;50.984;5.822;2022-10-03T17:55:51;5.27;;;3.47;;
24447;SDS011;13348;50.984;5.822;2022-10-03T17:58:22;7.15;;;3.60;;
24447;SDS011;13348;50.984;5.822;2022-10-03T18:00:54;8.30;;;4.15;;
24447;SDS011;13348;50.984;5.822;2022-10-03T18:03:31;8.30;;;3.88;;
24447;SDS011;13348;50.984;5.822;2022-10-03T18:06:01;11.30;;;3.92;;
24447;SDS011;13348;50.984;5.822;2022-10-03T18:08:49;8.07;;;3.88;;
24447;SDS011;13348;50.984;5.822;2022-10-03T18:11:19;8.57;;;3.78;;
24447;SDS011;13348;50.984;5.822;2022-10-03T18:16:24;7.40;;;4.00;;
24447;SDS011;13348;50.984;5.822;2022-10-03T18:19:03;8.80;;;3.90;;
24447;SDS011;13348;50.984;5.822;2022-10-03T18:21:45;5.32;;;3.45;;
24447;SDS011;13348;50.984;5.822;2022-10-03T18:24:26;8.48;;;3.67;;
24447;SDS011;13348;50.984;5.822;2022-10-03T18:27:26;7.40;;;3.65;;
24447;SDS011;13348;50.984;5.822;2022-10-03T18:30:13;13.55;;;4.07;;
24447;SDS011;13348;50.984;5.822;2022-10-03T18:32:43;9.07;;;4.60;;
24447;SDS011;13348;50.984;5.822;2022-10-03T18:35:12;7.72;;;3.97;;
24447;SDS011;13348;50.984;5.822;2022-10-03T18:40:49;11.98;;;4.40;;
24447;SDS011;13348;50.984;5.822;2022-10-03T18:43:30;6.03;;;4.20;;
24447;SDS011;13348;50.984;5.822;2022-10-03T18:46:08;9.02;;;4.30;;
24447;SDS011;13348;50.984;5.822;2022-10-03T18:51:14;5.47;;;3.47;;
24447;SDS011;13348;50.984;5.822;2022-10-03T18:53:50;8.77;;;4.55;;
24447;SDS011;13348;50.984;5.822;2022-10-03T18:56:24;6.95;;;4.82;;
24447;SDS011;13348;50.984;5.822;2022-10-03T18:59:09;8.27;;;4.95;;
24447;SDS011;13348;50.984;5.822;2022-10-03T19:01:45;8.85;;;4.30;;
24447;SDS011;13348;50.984;5.822;2022-10-03T19:04:22;7.65;;;4.68;;
24447;SDS011;13348;50.984;5.822;2022-10-03T19:07:00;9.65;;;4.55;;
24447;SDS011;13348;50.984;5.822;2022-10-03T19:09:37;7.45;;;4.22;;
24447;SDS011;13348;50.984;5.822;2022-10-03T19:12:09;7.15;;;4.35;;
24447;SDS011;13348;50.984;5.822;2022-10-03T19:14:45;7.35;;;4.60;;
24447;SDS011;13348;50.984;5.822;2022-10-03T19:17:28;9.55;;;4.75;;
24447;SDS011;13348;50.984;5.822;2022-10-03T19:20:10;6.13;;;4.57;;
24447;SDS011;13348;50.984;5.822;2022-10-03T19:22:47;10.38;;;5.53;;
24447;SDS011;13348;50.984;5.822;2022-10-03T19:25:21;11.95;;;7.20;;
24447;SDS011;13348;50.984;5.822;2022-10-03T19:27:51;12.75;;;8.15;;
24447;SDS011;13348;50.984;5.822;2022-10-03T19:30:22;9.20;;;6.72;;
24447;SDS011;13348;50.984;5.822;2022-10-03T19:32:53;11.90;;;6.40;;
24447;SDS011;13348;50.984;5.822;2022-10-03T19:35:23;15.05;;;6.50;;
24447;SDS011;13348;50.984;5.822;2022-10-03T19:37:51;10.25;;;6.35;;
24447;SDS011;13348;50.984;5.822;2022-10-03T19:40:25;10.20;;;5.93;;
24447;SDS011;13348;50.984;5.822;2022-10-03T19:43:23;12.32;;;6.35;;
24447;SDS011;13348;50.984;5.822;2022-10-03T19:46:02;13.23;;;6.50;;
24447;SDS011;13348;50.984;5.822;2022-10-03T19:49:08;12.65;;;8.23;;
24447;SDS011;13348;50.984;5.822;2022-10-03T19:51:47;16.08;;;9.30;;
24447;SDS011;13348;50.984;5.822;2022-10-03T19:54:26;20.17;;;9.27;;
24447;SDS011;13348;50.984;5.822;2022-10-03T19:56:56;13.80;;;7.93;;
24447;SDS011;13348;50.984;5.822;2022-10-03T19:59:42;9.65;;;6.45;;
24447;SDS011;13348;50.984;5.822;2022-10-03T20:02:10;12.90;;;7.13;;
24447;SDS011;13348;50.984;5.822;2022-10-03T20:04:39;14.57;;;7.88;;
24447;SDS011;13348;50.984;5.822;2022-10-03T20:07:10;19.23;;;7.32;;